Time;durP1;ratioP1;P1;durP2;ratioP2;P2;SDS_P1;SDS_P2;PMS_P1;PMS_P2;Temp;Humidity;BMP_temperature;BMP_pressure;BME280_temperature;BME280_humidity;BME280_pressure;Samples;Min_cycle;Max_cycle;Signal;HPM_P1;HPM_P2
2022/12/14 00:01:46;;;;;;;6.75;5.13;;;;;;;16.59;39.50;95112.75;10483303;28;20448;-29
2022/12/14 00:06:47;;;;;;;8.13;6.00;;;;;;;16.62;39.20;95102.59;10491136;28;20031;-29
2022/12/14 00:11:49;;;;;;;7.10;4.93;;;;;;;16.64;39.09;95100.91;10472956;28;20336;-29
2022/12/14 00:16:49;;;;;;;6.80;5.55;;;;;;;16.69;39.74;95093.22;10486294;28;20047;-29
2022/12/14 00:21:50;;;;;;;8.05;5.55;;;;;;;16.72;39.09;95100.75;10478068;28;20043;-29
2022/12/14 00:26:50;;;;;;;6.82;5.70;;;;;;;16.74;38.76;95102.38;10480370;28;20041;-29
2022/12/14 00:31:50;;;;;;;8.23;5.57;;;;;;;16.74;38.75;95088.03;10480327;28;20047;-29
2022/12/14 00:36:51;;;;;;;6.10;5.50;;;;;;;16.73;39.07;95081.31;10488948;28;20352;-29
2022/12/14 00:41:51;;;;;;;8.20;4.47;;;;;;;16.73;38.11;95083.84;10484739;28;20294;-29
2022/12/14 00:46:52;;;;;;;7.07;5.10;;;;;;;16.73;38.83;95079.66;10482587;28;20032;-29
2022/12/14 00:51:52;;;;;;;8.13;5.40;;;;;;;16.71;38.60;95079.69;10481357;28;20081;-29
2022/12/14 00:56:53;;;;;;;7.60;6.13;;;;;;;16.73;38.43;95083.03;10475024;28;20484;-28
2022/12/14 01:01:54;;;;;;;26.35;5.40;;;;;;;16.69;38.79;95073.84;10484607;28;20123;-29
2022/12/14 01:06:55;;;;;;;6.28;4.45;;;;;;;16.67;38.67;95062.94;10480236;28;20514;-28
2022/12/14 01:11:55;;;;;;;5.82;4.85;;;;;;;16.66;38.55;95057.91;10473968;28;20024;-29
2022/12/14 01:16:55;;;;;;;6.00;4.90;;;;;;;16.67;38.32;95050.28;10483456;28;20032;-29
2022/12/14 01:21:56;;;;;;;5.50;4.43;;;;;;;16.72;38.41;95052.72;10475140;28;20828;-29
2022/12/14 01:26:56;;;;;;;6.23;5.10;;;;;;;16.70;38.32;95047.69;10479352;28;20353;-30
2022/12/14 01:31:57;;;;;;;6.83;5.00;;;;;;;16.71;38.29;95036.72;10476975;28;20365;-29
2022/12/14 01:36:57;;;;;;;4.83;4.23;;;;;;;16.67;38.55;95041.88;10486505;28;20348;-29
2022/12/14 01:41:58;;;;;;;5.27;4.57;;;;;;;16.64;38.32;95030.16;10482344;28;20416;-28
2022/12/14 01:47:11;;;;;;;5.05;4.55;;;;;;;16.63;38.33;95031.00;10475808;28;20028;-30
2022/12/14 01:52:47;;;;;;;5.50;4.70;;;;;;;16.63;38.45;95013.31;10480469;28;20036;-29
2022/12/14 01:57:56;;;;;;;5.72;4.65;;;;;;;16.61;38.15;94997.34;10471275;28;20047;-28
2022/12/14 02:03:07;;;;;;;5.85;4.88;;;;;;;16.59;38.27;94995.72;10486050;28;20107;-30
2022/12/14 02:08:07;;;;;;;5.38;4.50;;;;;;;16.57;38.30;94998.28;10493530;28;20294;-29
2022/12/14 02:13:18;;;;;;;5.13;4.63;;;;;;;16.57;38.59;94995.78;10477757;28;20068;-29
2022/12/14 02:18:24;;;;;;;5.38;4.47;;;;;;;16.53;38.71;94989.09;10479895;28;20039;-29
2022/12/14 02:23:42;;;;;;;5.40;4.70;;;;;;;16.50;38.29;94993.38;10476514;28;20484;-29
2022/12/14 02:29:04;;;;;;;6.20;5.20;;;;;;;16.49;38.11;94992.56;10460990;28;20446;-29
2022/12/14 02:34:04;;;;;;;5.47;4.32;;;;;;;16.50;37.97;95006.00;10481816;28;20016;-29
2022/12/14 02:39:19;;;;;;;5.10;4.60;;;;;;;16.51;37.76;95007.66;10478336;28;20029;-29
2022/12/14 02:44:43;;;;;;;5.55;4.47;;;;;;;16.55;37.59;95005.06;10477546;28;20044;-30
2022/12/14 02:50:32;;;;;;;5.35;4.68;;;;;;;16.55;38.37;95012.63;10481007;28;20159;-30
2022/12/14 02:55:37;;;;;;;5.97;4.53;;;;;;;16.52;38.29;95011.88;10468021;28;20090;-29
2022/12/14 03:00:38;;;;;;;6.18;4.55;;;;;;;16.52;38.23;95000.06;10474450;28;20033;-29
2022/12/14 03:05:38;;;;;;;6.05;4.20;;;;;;;16.53;38.68;95001.72;10478198;28;20085;-28
2022/12/14 03:10:50;;;;;;;5.00;4.27;;;;;;;16.54;38.93;94998.34;10473656;28;20387;-29
2022/12/14 03:15:57;;;;;;;5.80;4.40;;;;;;;16.55;39.36;94989.06;10484520;28;20055;-29
2022/12/14 03:21:00;;;;;;;4.35;3.83;;;;;;;16.57;39.57;94988.19;10490001;28;20115;-29
2022/12/14 03:26:24;;;;;;;5.55;4.40;;;;;;;16.62;39.85;94983.84;10485377;28;20062;-29
2022/12/14 03:31:51;;;;;;;5.38;4.03;;;;;;;16.67;40.17;94984.59;10485615;28;20101;-29
2022/12/14 03:37:05;;;;;;;4.97;4.05;;;;;;;16.68;40.06;94971.13;10491778;28;20119;-28
2022/12/14 03:42:32;;;;;;;7.00;3.47;;;;;;;16.70;40.01;94961.78;10491064;28;20127;-29
2022/12/14 03:48:00;;;;;;;4.95;3.70;;;;;;;16.71;39.97;94950.00;10488805;28;20609;-29
2022/12/14 03:53:15;;;;;;;4.00;3.60;;;;;;;16.71;39.88;94940.72;10479052;28;20047;-29
2022/12/14 03:58:21;;;;;;;4.25;3.80;;;;;;;16.72;40.50;94949.97;10479871;28;20127;-28
2022/12/14 04:03:27;;;;;;;3.60;3.23;;;;;;;16.72;41.13;94955.03;10487995;28;20064;-29
2022/12/14 04:08:43;;;;;;;3.93;3.50;;;;;;;16.71;40.76;94940.72;10496169;28;20031;-29
2022/12/14 04:19:19;;;;;;;3.38;3.03;;;;;;;16.71;40.67;94935.66;10480219;28;20107;-30
2022/12/14 04:30:13;;;;;;;4.75;3.70;;;;;;;16.66;41.01;94911.38;10482332;28;20036;-28
2022/12/14 04:35:23;;;;;;;4.65;3.30;;;;;;;16.59;41.37;94897.19;10486746;28;20418;-29
2022/12/14 04:40:31;;;;;;;4.30;3.40;;;;;;;16.62;41.17;94897.97;10486497;28;20032;-29
2022/12/14 04:45:39;;;;;;;3.53;3.22;;;;;;;16.62;41.30;94880.28;10498081;28;20522;-29
2022/12/14 04:50:46;;;;;;;5.55;3.30;;;;;;;16.64;41.98;94873.53;10490848;28;20024;-29
2022/12/14 04:55:49;;;;;;;8.65;3.22;;;;;;;16.69;42.05;94868.38;10491939;28;20034;-29
2022/12/14 05:01:15;;;;;;;3.50;3.20;;;;;;;16.70;42.48;94855.69;10510666;28;20036;-29
2022/12/14 05:06:30;;;;;;;5.75;3.95;;;;;;;16.73;43.01;94832.06;10475689;28;20048;-30
2022/12/14 05:11:39;;;;;;;3.97;2.80;;;;;;;16.69;43.30;94816.13;10503188;28;20379;-29
2022/12/14 05:16:39;;;;;;;7.20;3.53;;;;;;;16.80;43.95;94824.28;10505579;28;20028;-31
2022/12/14 05:21:48;;;;;;;5.30;3.30;;;;;;;16.83;43.55;94821.69;10486033;28;20044;-29
2022/12/14 05:26:49;;;;;;;4.78;3.92;;;;;;;16.85;43.70;94814.91;10500474;28;20652;-29
2022/12/14 05:31:50;;;;;;;5.77;3.53;;;;;;;16.79;43.74;94812.50;10510863;28;20032;-30
2022/12/14 05:36:51;;;;;;;8.98;4.47;;;;;;;16.82;43.94;94817.53;10488459;28;20119;-29
2022/12/14 05:41:52;;;;;;;5.07;4.10;;;;;;;16.81;44.27;94810.81;10482540;28;20028;-28
2022/12/14 05:46:52;;;;;;;6.13;4.68;;;;;;;16.77;44.24;94805.88;10497847;28;20648;-29
2022/12/14 05:51:53;;;;;;;10.30;4.60;;;;;;;16.84;44.28;94806.47;10483473;28;20469;-29
2022/12/14 05:56:53;;;;;;;12.23;4.00;;;;;;;16.87;43.45;94808.09;10477100;28;20569;-29
2022/12/14 06:01:54;;;;;;;12.43;5.40;;;;;;;16.77;42.97;94810.03;10482874;28;20083;-29
2022/12/14 06:06:54;;;;;;;8.70;5.40;;;;;;;16.81;43.14;94801.50;10476770;28;20875;-30
2022/12/14 06:11:54;;;;;;;7.90;4.23;;;;;;;16.82;43.83;94797.31;10476703;28;20282;-30
2022/12/14 06:16:55;;;;;;;5.22;3.70;;;;;;;16.75;43.33;94795.78;10485790;28;20294;-29
2022/12/14 06:21:55;;;;;;;4.70;3.70;;;;;;;16.82;43.54;94793.06;10477305;28;20058;-29
2022/12/14 06:26:55;;;;;;;5.83;3.63;;;;;;;16.82;43.70;94792.25;10482079;28;20111;-29
2022/12/14 06:31:56;;;;;;;13.47;6.57;;;;;;;16.50;41.66;94788.81;10475993;28;20035;-30
2022/12/14 06:36:56;;;;;;;11.93;6.93;;;;;;;16.40;41.14;94775.56;10483229;28;20036;-29
2022/12/14 06:41:56;;;;;;;10.33;5.70;;;;;;;16.56;42.02;94768.47;10482646;28;20457;-31
2022/12/14 06:46:57;;;;;;;8.87;5.30;;;;;;;16.60;41.95;94770.88;10466220;28;20048;-29
2022/12/14 06:51:57;;;;;;;10.13;5.80;;;;;;;16.62;42.26;94774.19;10483050;28;20032;-28
2022/12/14 06:56:58;;;;;;;7.97;4.67;;;;;;;16.56;42.32;94751.63;10493174;28;20108;-28
2022/12/14 07:01:58;;;;;;;8.07;4.37;;;;;;;16.62;42.73;94758.22;10471930;28;20033;-29
2022/12/14 07:06:58;;;;;;;10.73;4.73;;;;;;;16.64;43.12;94772.47;10492810;28;20286;-29
2022/12/14 07:11:59;;;;;;;6.63;4.13;;;;;;;16.64;42.67;94769.94;10483197;28;20302;-29
2022/12/14 07:16:59;;;;;;;5.95;3.60;;;;;;;16.66;42.46;94768.22;10488742;28;20380;-30
2022/12/14 07:22:03;;;;;;;5.77;3.87;;;;;;;16.66;42.72;94770.75;10479470;28;20044;-29
2022/12/14 07:27:03;;;;;;;5.60;3.97;;;;;;;16.68;42.48;94774.06;10489810;28;20274;-29
2022/12/14 07:32:03;;;;;;;6.18;3.25;;;;;;;16.67;42.89;94769.03;10482943;28;20032;-29
2022/12/14 07:37:04;;;;;;;4.47;4.00;;;;;;;16.64;42.86;94767.44;10480065;28;20622;-30
2022/12/14 07:42:04;;;;;;;4.70;3.83;;;;;;;16.66;42.81;94768.22;10489774;28;20056;-29
2022/12/14 07:47:05;;;;;;;6.83;3.67;;;;;;;16.68;42.70;94763.94;10477780;28;20027;-29
2022/12/14 07:52:05;;;;;;;6.03;3.63;;;;;;;16.66;43.53;94760.63;10478437;28;20020;-29
2022/12/14 07:57:05;;;;;;;4.03;2.83;;;;;;;16.68;43.11;94763.94;10489027;28;20290;-29
2022/12/14 08:02:10;;;;;;;4.77;3.97;;;;;;;16.66;42.86;94768.22;10485845;28;20034;-29
2022/12/14 08:07:11;;;;;;;5.78;3.00;;;;;;;16.60;43.31;94770.06;10485307;28;20032;-29
2022/12/14 08:12:11;;;;;;;3.53;3.00;;;;;;;16.58;42.98;94782.72;10484101;28;20036;-29
2022/12/14 08:17:11;;;;;;;4.20;3.43;;;;;;;16.56;43.56;94781.94;10478193;28;20655;-29
2022/12/14 08:22:12;;;;;;;5.90;3.20;;;;;;;16.54;42.97;94786.16;10477136;28;20035;-29
2022/12/14 08:27:12;;;;;;;4.25;3.22;;;;;;;16.52;43.59;94787.91;10488860;28;20286;-29
2022/12/14 08:32:14;;;;;;;4.25;2.58;;;;;;;16.56;43.33;94781.09;10479093;28;20404;-29
2022/12/14 08:37:14;;;;;;;3.53;2.97;;;;;;;16.54;43.20;94786.16;10476805;28;20032;-29
2022/12/14 08:42:14;;;;;;;3.97;3.28;;;;;;;16.51;42.99;94771.09;10487538;28;20107;-31
2022/12/14 08:47:15;;;;;;;4.47;3.50;;;;;;;16.52;43.42;94777.00;10483844;28;20021;-29
2022/12/14 08:52:15;;;;;;;3.80;2.90;;;;;;;16.52;43.31;94772.75;10482595;28;20039;-29
2022/12/14 08:57:15;;;;;;;3.07;2.57;;;;;;;16.50;43.14;94778.69;10487269;28;20095;-29
2022/12/14 09:02:16;;;;;;;4.10;2.67;;;;;;;16.51;43.31;94776.16;10474858;28;20423;-29
2022/12/14 09:07:16;;;;;;;4.03;2.38;;;;;;;16.55;43.73;94772.66;10482597;28;20395;-29
2022/12/14 09:12:16;;;;;;;3.30;2.77;;;;;;;16.54;43.77;94783.63;10480720;28;20024;-29
2022/12/14 09:17:18;;;;;;;2.67;2.43;;;;;;;16.57;43.00;94777.69;10480555;28;20400;-29
2022/12/14 09:22:18;;;;;;;3.00;2.70;;;;;;;16.56;43.55;94773.50;10474669;28;20059;-29
2022/12/14 09:27:18;;;;;;;6.37;2.80;;;;;;;16.51;43.28;94788.78;10480354;28;20414;-28
2022/12/14 09:32:19;;;;;;;2.90;2.60;;;;;;;16.49;43.34;94798.09;10478326;28;20036;-29
2022/12/14 09:37:19;;;;;;;3.42;2.47;;;;;;;16.51;43.10;94800.56;10486040;28;20447;-29
2022/12/14 09:42:46;;;;;;;3.00;2.70;;;;;;;16.49;42.96;94803.13;10484191;28;20409;-29
2022/12/14 09:47:59;;;;;;;4.75;2.53;;;;;;;16.55;42.84;94802.97;10480269;28;20380;-29
2022/12/14 09:53:04;;;;;;;2.72;2.42;;;;;;;16.53;43.22;94794.63;10479097;28;20490;-30
2022/12/14 09:58:22;;;;;;;2.65;2.15;;;;;;;16.53;43.39;94784.50;10484413;28;20395;-29
2022/12/14 10:03:31;;;;;;;3.25;2.67;;;;;;;16.51;43.54;94786.25;10480787;28;20040;-29
2022/12/14 10:08:40;;;;;;;2.78;2.30;;;;;;;16.51;43.00;94771.09;10479891;28;20111;-29
2022/12/14 10:13:41;;;;;;;2.78;2.58;;;;;;;16.51;43.22;94771.09;10480859;28;20028;-29
2022/12/14 10:18:56;;;;;;;3.08;2.35;;;;;;;16.53;43.29;94781.97;10478726;28;20036;-29
2022/12/14 10:24:03;;;;;;;2.55;2.10;;;;;;;16.58;42.85;94777.66;10478002;28;20112;-29
2022/12/14 10:29:16;;;;;;;2.77;2.10;;;;;;;16.60;43.20;94778.47;10485123;28;20119;-29
2022/12/14 10:34:19;;;;;;;2.45;2.00;;;;;;;16.60;43.58;94765.81;10481572;28;20915;-29
2022/12/14 10:39:32;;;;;;;3.65;2.53;;;;;;;16.59;43.08;94759.13;10478825;28;20043;-29
2022/12/14 10:45:05;;;;;;;2.20;2.00;;;;;;;16.58;43.00;94749.88;10476282;28;20140;-29
2022/12/14 10:50:25;;;;;;;4.28;2.72;;;;;;;16.56;43.28;94749.09;10485479;28;20036;-29
2022/12/14 10:55:34;;;;;;;2.58;2.30;;;;;;;16.54;43.30;94735.66;10479894;28;20032;-28
2022/12/14 11:00:35;;;;;;;4.05;2.10;;;;;;;16.54;43.17;94730.59;10474303;28;20033;-29
2022/12/14 11:05:47;;;;;;;2.00;1.80;;;;;;;16.53;43.27;94740.75;10479130;28;20083;-30
2022/12/14 11:11:07;;;;;;;2.28;2.08;;;;;;;16.50;43.33;94744.19;10474727;28;20085;-29
2022/12/14 11:16:26;;;;;;;2.17;1.90;;;;;;;16.52;43.47;94742.44;10484099;28;20043;-29
2022/12/14 11:21:30;;;;;;;2.20;2.00;;;;;;;16.53;43.51;94743.28;10481655;28;20052;-29
2022/12/14 11:26:40;;;;;;;2.47;2.25;;;;;;;16.55;42.95;94742.34;10480327;28;20028;-29
2022/12/14 11:31:46;;;;;;;6.10;2.90;;;;;;;16.52;42.97;94737.41;10467683;28;20020;-29
2022/12/14 11:36:48;;;;;;;5.90;2.43;;;;;;;16.59;43.41;94723.75;10475990;28;20032;-28
2022/12/14 11:41:58;;;;;;;7.07;3.03;;;;;;;16.56;43.55;94718.78;10490782;28;20033;-29
2022/12/14 11:46:59;;;;;;;3.75;2.45;;;;;;;16.66;44.23;94722.75;10484383;28;20036;-29
2022/12/14 11:52:21;;;;;;;4.45;2.80;;;;;;;16.71;44.06;94728.50;10504504;28;20028;-30
2022/12/14 11:57:23;;;;;;;4.45;2.78;;;;;;;16.71;44.26;94723.44;10478819;28;20123;-28
2022/12/14 12:02:26;;;;;;;10.32;3.17;;;;;;;16.73;44.32;94726.78;10492144;28;20040;-30
2022/12/14 12:07:31;;;;;;;24.08;4.50;;;;;;;16.73;44.89;94741.09;10480472;28;20017;-29
2022/12/14 12:12:32;;;;;;;14.02;3.20;;;;;;;16.74;44.76;94761.28;10476923;28;20024;-29
2022/12/14 12:17:41;;;;;;;7.07;3.38;;;;;;;16.73;45.03;94787.41;10475447;28;20025;-29
2022/12/14 12:22:45;;;;;;;8.73;3.70;;;;;;;16.72;45.03;94803.44;10491254;28;20472;-29
2022/12/14 12:27:58;;;;;;;9.73;3.45;;;;;;;16.74;45.51;94814.34;10490299;28;20027;-29
2022/12/14 12:33:12;;;;;;;6.57;3.50;;;;;;;16.72;45.17;94800.91;10479818;28;20073;-29
2022/12/14 12:38:20;;;;;;;6.43;2.85;;;;;;;16.64;45.23;94795.22;10487865;28;20036;-29
2022/12/14 12:43:45;;;;;;;7.13;3.60;;;;;;;16.55;44.14;94802.97;10479632;28;20039;-28
2022/12/14 12:48:50;;;;;;;7.68;3.42;;;;;;;16.61;45.19;94812.94;10483262;28;20028;-29
2022/12/14 12:53:55;;;;;;;5.35;3.50;;;;;;;16.67;45.32;94806.91;10478369;28;20037;-29
2022/12/14 12:58:58;;;;;;;7.38;3.40;;;;;;;16.70;45.26;94812.72;10488925;28;20033;-29
2022/12/14 13:04:04;;;;;;;9.10;3.10;;;;;;;16.75;44.62;94823.56;10472582;28;20116;-30
2022/12/14 13:09:22;;;;;;;8.05;3.55;;;;;;;16.75;44.96;94826.91;10481045;28;20062;-29
2022/12/14 13:14:29;;;;;;;5.03;3.08;;;;;;;16.80;44.78;94829.34;10479282;28;20085;-29
2022/12/14 13:19:45;;;;;;;5.68;3.50;;;;;;;16.78;45.02;94831.06;10479778;28;20043;-29
2022/12/14 13:24:48;;;;;;;4.50;2.45;;;;;;;16.77;44.61;94826.88;10478308;28;20040;-29
2022/12/14 13:30:13;;;;;;;5.00;3.15;;;;;;;16.76;44.89;94827.75;10486930;28;20025;-30
2022/12/14 13:35:23;;;;;;;2.95;2.40;;;;;;;16.73;44.89;94833.72;10483643;28;20036;-29
2022/12/14 13:40:39;;;;;;;9.10;3.58;;;;;;;16.75;44.72;94833.69;10487473;28;20032;-29
2022/12/14 13:45:45;;;;;;;9.33;5.20;;;;;;;16.75;44.48;94842.06;10483316;28;20403;-29
2022/12/14 13:51:03;;;;;;;5.80;3.30;;;;;;;16.72;44.93;94823.66;10484318;28;20027;-29
2022/12/14 13:56:05;;;;;;;6.53;3.10;;;;;;;16.71;44.45;94827.03;10481393;28;20024;-29
2022/12/14 14:01:11;;;;;;;5.78;3.70;;;;;;;16.67;44.82;94824.59;10476368;28;20025;-29
2022/12/14 14:06:11;;;;;;;7.13;3.80;;;;;;;16.74;44.76;94845.47;10475837;28;20368;-29
2022/12/14 14:11:17;;;;;;;4.60;2.88;;;;;;;16.77;44.50;94844.56;10473694;28;20032;-29
2022/12/14 14:16:28;;;;;;;6.57;2.75;;;;;;;16.77;45.02;94845.41;10482469;28;20703;-29
2022/12/14 14:21:31;;;;;;;3.78;2.85;;;;;;;16.79;44.76;94875.69;10479478;28;20062;-29
2022/12/14 14:26:35;;;;;;;7.65;3.78;;;;;;;16.75;44.42;94871.59;10472995;28;20580;-29
2022/12/14 14:32:04;;;;;;;4.13;3.00;;;;;;;16.80;45.10;94893.34;10466950;28;20024;-29
2022/12/14 14:37:20;;;;;;;5.28;3.22;;;;;;;16.78;45.10;94901.81;10463842;28;20128;-29
2022/12/14 14:42:23;;;;;;;15.00;3.70;;;;;;;16.79;45.58;94898.44;10481688;28;20476;-29
2022/12/14 14:47:27;;;;;;;8.82;3.25;;;;;;;16.81;45.67;94902.59;10473873;28;20083;-30
2022/12/14 14:52:37;;;;;;;5.28;3.00;;;;;;;16.81;45.40;94904.31;10477563;28;20614;-29
2022/12/14 14:57:58;;;;;;;6.80;3.00;;;;;;;16.79;45.92;94911.06;10470426;28;20115;-29
2022/12/14 15:02:59;;;;;;;6.68;3.13;;;;;;;16.78;45.25;94911.94;10475703;28;20036;-29
2022/12/14 15:08:00;;;;;;;3.75;2.40;;;;;;;16.85;45.39;94923.56;10478550;28;20033;-29
2022/12/14 15:13:17;;;;;;;3.92;2.50;;;;;;;16.85;45.97;94932.00;10484056;28;20131;-28
2022/12/14 15:18:29;;;;;;;4.00;2.63;;;;;;;16.82;45.89;94944.69;10491042;28;20540;-29
2022/12/14 15:23:40;;;;;;;3.08;2.30;;;;;;;16.83;46.08;94955.63;10484324;28;20036;-29
2022/12/14 15:28:41;;;;;;;2.75;2.25;;;;;;;16.80;45.76;94960.72;10482304;28;20031;-28
2022/12/14 15:33:42;;;;;;;2.80;2.33;;;;;;;16.82;45.69;94964.09;10490147;28;20022;-29
2022/12/14 15:38:52;;;;;;;5.10;2.95;;;;;;;16.81;45.79;94987.69;10490659;28;20029;-29
2022/12/14 15:43:54;;;;;;;3.70;2.90;;;;;;;16.88;45.44;95004.38;10481567;28;20024;-30
2022/12/14 15:49:09;;;;;;;8.45;2.88;;;;;;;16.88;45.66;95005.22;10478675;28;20023;-29
2022/12/14 15:54:27;;;;;;;3.05;2.30;;;;;;;16.87;45.64;95016.19;10488111;28;20036;-29
2022/12/14 15:59:34;;;;;;;3.67;1.92;;;;;;;16.84;45.83;95015.41;10487182;28;20036;-29
2022/12/14 16:04:35;;;;;;;;;;;;;;;16.86;45.89;95021.25;10476659;28;20036;-29
2022/12/14 16:09:39;;;;;;;3.38;2.28;;;;;;;16.88;45.82;95017.84;10480184;28;20067;-29
2022/12/14 16:15:00;;;;;;;3.80;2.38;;;;;;;16.82;45.58;95014.63;10486637;28;20041;-29
2022/12/14 16:20:02;;;;;;;4.47;2.58;;;;;;;16.87;46.38;95023.78;10483019;28;20128;-29
2022/12/14 16:25:16;;;;;;;5.10;2.65;;;;;;;16.94;45.93;95014.34;10480807;28;20041;-29
2022/12/14 16:30:31;;;;;;;9.60;4.80;;;;;;;16.93;46.26;95007.63;10484589;28;20496;-29
2022/12/14 16:35:34;;;;;;;19.17;8.60;;;;;;;16.89;47.44;95016.97;10483137;28;20027;-28
2022/12/14 16:40:39;;;;;;;39.03;16.50;;;;;;;16.92;47.19;95016.09;10488952;28;20048;-29
2022/12/14 16:45:42;;;;;;;53.65;19.92;;;;;;;16.95;47.29;95032.03;10476630;28;20028;-29
2022/12/14 16:50:42;;;;;;;43.17;19.30;;;;;;;16.95;47.55;95034.56;10477120;28;20028;-29
2022/12/14 16:56:02;;;;;;;46.50;18.33;;;;;;;16.98;47.72;95023.56;10485689;28;20025;-30
2022/12/14 17:01:06;;;;;;;53.08;21.58;;;;;;;17.00;48.40;95039.50;10478817;28;20035;-28
2022/12/14 17:06:07;;;;;;;54.75;22.13;;;;;;;17.03;48.53;95047.03;10481114;28;20031;-29
2022/12/14 17:11:11;;;;;;;52.35;20.13;;;;;;;17.07;47.57;95058.75;10470942;28;20036;-30
2022/12/14 17:16:19;;;;;;;48.03;20.63;;;;;;;17.05;48.33;95065.50;10472612;28;20119;-29
2022/12/14 17:21:26;;;;;;;58.10;22.65;;;;;;;16.98;48.68;95066.53;10477286;28;20045;-30
2022/12/14 17:26:29;;;;;;;47.65;21.67;;;;;;;17.05;47.88;95079.00;10481609;28;20468;-29
2022/12/14 17:31:30;;;;;;;51.45;21.75;;;;;;;17.04;48.68;95089.13;10479025;28;21040;-29
2022/12/14 17:36:30;;;;;;;52.50;22.03;;;;;;;17.02;48.56;95099.28;10486527;28;20040;-29
2022/12/14 17:41:31;;;;;;;60.57;26.47;;;;;;;17.03;49.01;95095.03;10486052;28;20021;-29
2022/12/14 17:46:31;;;;;;;56.13;26.73;;;;;;;17.01;48.66;95091.72;10475119;28;20366;-29
2022/12/14 17:51:40;;;;;;;56.40;25.20;;;;;;;17.01;47.95;95076.56;10468942;28;20028;-29
2022/12/14 17:56:41;;;;;;;50.05;25.00;;;;;;;17.00;48.46;95079.97;10474772;28;20500;-29
2022/12/14 18:01:42;;;;;;;54.55;25.33;;;;;;;17.00;48.29;95077.44;10475716;28;20040;-29
2022/12/14 18:06:43;;;;;;;50.53;24.03;;;;;;;17.00;48.04;95075.72;10482605;28;20028;-29
2022/12/14 18:11:43;;;;;;;51.95;22.98;;;;;;;17.02;48.55;95083.28;10476280;28;20282;-30
2022/12/14 18:16:44;;;;;;;48.03;23.47;;;;;;;17.03;48.30;95090.00;10481025;28;20035;-29
2022/12/14 18:21:44;;;;;;;44.50;20.93;;;;;;;17.05;48.67;95080.69;10478229;28;20033;-28
2022/12/14 18:26:44;;;;;;;38.73;21.60;;;;;;;17.04;49.04;95092.50;10472717;28;20032;-28
2022/12/14 18:31:45;;;;;;;42.30;21.80;;;;;;;17.04;48.64;95089.97;10474647;28;20068;-28
2022/12/14 18:36:45;;;;;;;45.10;20.90;;;;;;;16.98;48.91;95092.63;10484253;28;20036;-29
2022/12/14 18:41:46;;;;;;;42.30;19.23;;;;;;;16.96;49.00;95088.44;10483929;28;20086;-30
2022/12/14 18:46:47;;;;;;;42.70;19.90;;;;;;;16.99;48.72;95088.41;10476720;28;20037;-29
2022/12/14 18:51:48;;;;;;;35.28;18.25;;;;;;;16.97;48.96;95088.44;10478413;28;20048;-29
2022/12/14 18:56:48;;;;;;;34.35;19.33;;;;;;;16.97;48.89;95101.06;10483652;28;20046;-29
2022/12/14 19:01:49;;;;;;;35.50;19.63;;;;;;;16.98;48.60;95102.72;10478292;28;20032;-29
2022/12/14 19:06:49;;;;;;;35.20;19.00;;;;;;;16.95;48.90;95117.97;10482417;28;20039;-29
2022/12/14 19:11:49;;;;;;;39.53;19.33;;;;;;;16.97;48.68;95136.44;10482536;28;20028;-29
2022/12/14 19:16:50;;;;;;;33.90;18.37;;;;;;;16.97;48.05;95125.50;10479450;28;20040;-30
2022/12/14 19:21:50;;;;;;;34.13;18.87;;;;;;;17.00;48.21;95122.94;10476792;28;20037;-28
2022/12/14 19:26:50;;;;;;;36.70;21.75;;;;;;;17.03;48.46;95112.75;10456847;28;20646;-29
2022/12/14 19:31:51;;;;;;;44.63;23.03;;;;;;;16.99;48.70;95108.63;10465036;28;20036;-29
2022/12/14 19:36:51;;;;;;;43.88;23.35;;;;;;;17.01;48.83;95111.94;10471064;28;20064;-29
2022/12/14 19:41:53;;;;;;;42.03;24.27;;;;;;;17.01;48.97;95091.72;10479454;28;20537;-29
2022/12/14 19:46:53;;;;;;;39.40;21.88;;;;;;;17.01;48.28;95086.66;10473589;28;20032;-29
2022/12/14 19:51:53;;;;;;;35.43;22.17;;;;;;;17.00;48.31;95092.59;10473479;28;20034;-29
2022/12/14 19:56:54;;;;;;;40.93;22.87;;;;;;;16.90;48.05;95073.44;10480563;28;20399;-29
2022/12/14 20:01:54;;;;;;;39.53;22.00;;;;;;;16.97;48.21;95090.09;10474087;28;20568;-30
2022/12/14 20:06:54;;;;;;;39.23;21.70;;;;;;;16.96;47.91;95093.50;10478089;28;20286;-29
2022/12/14 20:11:55;;;;;;;31.97;20.00;;;;;;;16.98;47.96;95101.91;10476210;28;20056;-29
2022/12/14 20:16:55;;;;;;;37.00;20.53;;;;;;;16.94;47.85;95101.13;10484355;28;20040;-29
2022/12/14 20:21:56;;;;;;;31.00;18.90;;;;;;;16.95;47.64;95107.84;10477677;28;20750;-29
2022/12/14 20:26:56;;;;;;;32.53;19.37;;;;;;;16.97;47.75;95130.56;10473666;28;20032;-28
2022/12/14 20:31:56;;;;;;;27.37;18.53;;;;;;;16.97;47.52;95121.28;10479715;28;20392;-29
2022/12/14 20:36:57;;;;;;;30.70;18.87;;;;;;;16.97;47.73;95112.84;10473286;28;20385;-29
2022/12/14 20:41:57;;;;;;;33.70;17.97;;;;;;;16.97;47.41;95105.28;10478851;28;20441;-29
2022/12/14 20:46:57;;;;;;;30.53;17.33;;;;;;;16.96;47.27;95113.72;10476584;28;20459;-30
2022/12/14 20:51:58;;;;;;;28.90;17.63;;;;;;;16.79;47.36;95091.31;10476664;28;20419;-29
2022/12/14 20:56:58;;;;;;;27.57;17.10;;;;;;;16.97;47.67;95125.50;10482376;28;20041;-29
2022/12/14 21:01:58;;;;;;;30.57;17.63;;;;;;;16.99;47.63;95138.97;10475354;28;20302;-29
2022/12/14 21:06:59;;;;;;;24.50;14.10;;;;;;;16.81;45.42;95139.31;10481796;28;20029;-29
2022/12/14 21:17:20;;;;;;;28.30;15.80;;;;;;;16.84;47.27;95136.72;10491199;28;20523;-30
2022/12/14 21:22:23;;;;;;;23.75;14.18;;;;;;;16.86;47.71;95137.53;10483902;28;20028;-29
2022/12/14 21:27:25;;;;;;;21.67;12.98;;;;;;;16.87;47.69;95126.53;10487049;28;20604;-29
2022/12/14 21:32:26;;;;;;;26.60;13.07;;;;;;;16.88;47.69;95133.25;10483426;28;20480;-29
2022/12/14 21:37:27;;;;;;;19.48;12.73;;;;;;;16.91;48.19;95121.41;10486187;28;20040;-30
2022/12/14 21:42:27;;;;;;;17.20;11.30;;;;;;;16.79;46.94;95126.69;10489582;28;20111;-29
2022/12/14 21:47:28;;;;;;;18.40;11.20;;;;;;;16.84;48.78;95132.47;10485981;28;20327;-29
2022/12/14 21:52:29;;;;;;;21.85;11.77;;;;;;;16.90;48.54;95134.09;10486835;28;20051;-29
2022/12/14 22:02:48;;;;;;;20.35;11.00;;;;;;;16.87;49.84;95124.00;10464573;28;20578;-30
2022/12/14 22:07:48;;;;;;;19.87;10.87;;;;;;;16.86;49.63;95122.34;10476986;28;20063;-29
2022/12/14 22:12:49;;;;;;;17.80;10.87;;;;;;;16.86;51.52;95125.72;10480420;28;20040;-30
2022/12/14 22:17:50;;;;;;;17.13;10.90;;;;;;;16.90;50.85;95129.03;10476104;28;20068;-29
2022/12/14 22:22:50;;;;;;;21.15;10.85;;;;;;;16.85;51.15;95140.91;10477779;28;20045;-29
2022/12/14 22:27:51;;;;;;;17.83;10.03;;;;;;;16.82;51.28;95148.56;10486833;28;20085;-28
2022/12/14 22:32:51;;;;;;;15.67;10.20;;;;;;;16.77;51.79;95156.22;10473295;28;20032;-30
2022/12/14 22:37:52;;;;;;;16.83;10.40;;;;;;;16.77;51.32;95175.59;10480755;28;20793;-30
2022/12/14 22:42:52;;;;;;;15.67;9.13;;;;;;;16.75;51.90;95187.44;10479168;28;20032;-31
2022/12/14 22:47:52;;;;;;;18.60;10.53;;;;;;;16.76;51.66;95196.69;10478993;28;20024;-30
2022/12/14 22:52:53;;;;;;;15.90;9.77;;;;;;;16.73;52.20;95194.22;10477816;28;20412;-29
2022/12/14 22:57:54;;;;;;;18.83;10.50;;;;;;;16.73;51.69;95192.50;10483020;28;20066;-29
2022/12/14 23:02:55;;;;;;;14.30;9.23;;;;;;;16.75;51.46;95185.72;10479101;28;20102;-29
2022/12/14 23:07:55;;;;;;;16.60;10.10;;;;;;;16.76;51.33;95199.19;10476042;28;20036;-29
